createdAt,value
2023-05-02T00:12:12.433Z,12.31
2023-05-02T00:32:12.416Z,12.31
2023-05-02T00:52:12.399Z,12.50
2023-05-02T01:12:12.403Z,12.37
2023-05-02T01:32:12.356Z,12.31
2023-05-02T01:52:12.343Z,12.31
2023-05-02T02:12:12.252Z,12.37
2023-05-02T02:32:12.286Z,12.18
2023-05-02T02:52:12.230Z,12.31
2023-05-02T03:12:12.228Z,12.43
2023-05-02T03:32:12.211Z,12.43
2023-05-02T03:52:12.202Z,12.43
2023-05-02T04:12:12.232Z,12.43
2023-05-02T04:32:12.278Z,12.25
2023-05-02T04:52:12.320Z,12.25
2023-05-02T05:12:12.326Z,12.37
2023-05-02T05:32:12.246Z,12.06
2023-05-02T05:52:12.193Z,12.37
2023-05-02T06:12:12.137Z,12.25
2023-05-02T06:32:12.190Z,12.25
2023-05-02T06:52:12.091Z,12.25
2023-05-02T07:12:12.173Z,12.31
2023-05-02T07:32:12.084Z,12.31
2023-05-02T07:52:12.199Z,12.37
2023-05-02T08:12:12.218Z,12.31
2023-05-02T08:32:12.098Z,12.56
2023-05-02T08:52:12.142Z,12.37
2023-05-02T09:12:12.213Z,12.43
2023-05-02T09:32:12.123Z,12.43
2023-05-02T09:52:12.133Z,12.43
2023-05-02T10:12:11.998Z,12.56
2023-05-02T10:32:11.999Z,12.43
2023-05-02T10:52:12.103Z,12.50
2023-05-02T11:12:12.090Z,12.62
2023-05-02T11:32:12.042Z,12.62
2023-05-02T11:52:11.791Z,12.62
2023-05-02T12:12:11.995Z,12.62
2023-05-02T12:32:12.046Z,12.68
2023-05-02T12:52:12.010Z,12.62
2023-05-02T13:12:11.887Z,12.75
2023-05-02T13:32:11.713Z,12.62
2023-05-02T13:52:11.939Z,12.68
2023-05-02T14:12:11.915Z,12.62
2023-05-02T14:32:11.852Z,12.62
2023-05-02T14:52:11.888Z,12.81
2023-05-02T15:12:11.612Z,12.81
2023-05-02T15:32:11.769Z,12.75
2023-05-02T15:52:11.719Z,12.81
2023-05-02T16:12:11.635Z,12.81
2023-05-02T16:33:20.646Z,12.81
2023-05-02T16:52:11.553Z,12.75
2023-05-02T17:12:11.546Z,12.93
2023-05-02T17:32:11.663Z,12.93
2023-05-02T17:52:11.721Z,12.81
2023-05-02T18:12:11.560Z,12.75
2023-05-02T18:32:11.679Z,12.75
2023-05-02T18:52:11.606Z,12.81
2023-05-02T19:12:11.480Z,12.81
2023-05-02T19:32:11.621Z,12.68
2023-05-02T19:52:11.470Z,12.68
2023-05-02T20:12:11.572Z,12.68
2023-05-02T20:32:11.452Z,12.68
2023-05-02T20:52:11.526Z,12.62
2023-05-02T21:12:11.430Z,12.50
2023-05-02T21:32:11.647Z,12.75
2023-05-02T21:52:11.565Z,12.75
2023-05-02T22:12:11.536Z,12.50
2023-05-02T22:32:11.595Z,12.37
2023-05-02T22:52:11.489Z,12.56
2023-05-02T23:12:11.575Z,12.56
2023-05-02T23:32:11.457Z,12.37
2023-05-02T23:52:11.476Z,12.50
